createdAt,value
2023-03-06T00:03:16.035Z,3.58
2023-03-06T00:08:17.250Z,3.61
2023-03-06T00:13:21.524Z,3.58
2023-03-06T00:18:22.745Z,3.84
2023-03-06T00:23:24.106Z,3.83
2023-03-06T00:28:25.530Z,3.87
2023-03-06T00:33:26.809Z,3.89
2023-03-06T00:38:31.541Z,3.91
2023-03-06T00:43:32.772Z,3.86
2023-03-06T00:48:34.043Z,3.57
2023-03-06T00:53:35.337Z,3.32
2023-03-06T00:58:37.351Z,3.23
2023-03-06T01:03:38.599Z,3.10
2023-03-06T01:08:39.875Z,3.08
2023-03-06T01:13:41.136Z,3.21
2023-03-06T01:18:42.387Z,2.96
2023-03-06T01:23:43.704Z,2.99
2023-03-06T01:28:44.953Z,3.07
2023-03-06T01:33:46.236Z,3.01
2023-03-06T01:38:47.496Z,3.16
2023-03-06T01:43:48.699Z,3.16
2023-03-06T01:48:50.008Z,3.28
2023-03-06T01:53:51.330Z,3.45
2023-03-06T01:58:52.587Z,3.44
2023-03-06T02:03:53.821Z,3.32
2023-03-06T02:08:55.106Z,3.29
2023-03-06T02:13:56.331Z,3.44
2023-03-06T02:18:57.583Z,3.48
2023-03-06T02:23:58.840Z,3.26
2023-03-06T02:29:00.056Z,3.03
2023-03-06T02:34:01.271Z,3.21
2023-03-06T02:39:02.484Z,3.10
2023-03-06T02:44:03.847Z,3.21
2023-03-06T02:49:05.115Z,3.43
2023-03-06T02:54:06.386Z,3.50
2023-03-06T02:59:07.598Z,3.39
2023-03-06T03:04:08.946Z,3.50
2023-03-06T03:09:10.218Z,3.56
2023-03-06T03:14:11.561Z,3.30
2023-03-06T03:19:12.894Z,3.24
2023-03-06T03:24:14.204Z,3.32
2023-03-06T03:29:15.505Z,3.23
2023-03-06T03:34:16.949Z,3.29
2023-03-06T03:39:18.218Z,3.30
2023-03-06T03:44:19.467Z,3.28
2023-03-06T03:49:20.960Z,3.28
2023-03-06T03:54:22.218Z,3.25
2023-03-06T03:59:23.470Z,3.36
2023-03-06T04:04:24.730Z,3.21
2023-03-06T04:09:26.015Z,3.28
2023-03-06T04:14:27.244Z,3.05
2023-03-06T04:19:28.562Z,2.73
2023-03-06T04:24:29.836Z,2.69
2023-03-06T04:29:31.048Z,2.77
2023-03-06T04:34:32.246Z,2.91
2023-03-06T04:39:33.446Z,2.80
2023-03-06T04:44:34.674Z,2.65
2023-03-06T04:49:36.075Z,2.73
2023-03-06T04:54:37.324Z,2.72
2023-03-06T04:59:39.310Z,2.79
2023-03-06T05:04:40.588Z,2.72
2023-03-06T05:09:41.839Z,2.67
2023-03-06T05:14:43.817Z,2.41
2023-03-06T05:19:45.091Z,2.35
2023-03-06T05:24:46.301Z,2.39
2023-03-06T05:29:47.539Z,2.54
2023-03-06T05:34:48.796Z,2.37
2023-03-06T05:39:50.017Z,2.47
2023-03-06T05:44:51.220Z,2.34
2023-03-06T05:49:54.635Z,2.22
2023-03-06T05:54:55.968Z,2.28
2023-03-06T05:59:57.207Z,2.45
2023-03-06T06:04:58.478Z,2.20
2023-03-06T06:10:00.332Z,1.89
2023-03-06T06:15:02.457Z,1.78
2023-03-06T06:20:03.805Z,1.78
2023-03-06T06:25:05.092Z,1.70
2023-03-06T06:30:06.349Z,1.83
2023-03-06T06:35:07.626Z,2.09
2023-03-06T06:40:08.953Z,1.71
2023-03-06T06:45:10.586Z,1.74
2023-03-06T06:50:12.471Z,1.85
2023-03-06T06:55:13.738Z,1.85
2023-03-06T07:00:15.114Z,2.00
2023-03-06T07:05:16.472Z,2.09
2023-03-06T07:10:19.890Z,2.17
2023-03-06T07:15:21.297Z,2.41
2023-03-06T07:20:22.557Z,2.40
2023-03-06T07:25:27.646Z,2.48
2023-03-06T07:30:28.994Z,2.50
2023-03-06T07:35:30.319Z,2.55
2023-03-06T07:40:31.777Z,2.61
2023-03-06T07:45:33.012Z,2.75
2023-03-06T07:50:35.052Z,2.95
2023-03-06T07:55:43.007Z,2.99
2023-03-06T08:00:44.405Z,3.03
2023-03-06T08:05:46.223Z,3.12
2023-03-06T08:10:47.664Z,3.11
2023-03-06T08:15:49.600Z,3.14
2023-03-06T08:20:50.843Z,3.12
2023-03-06T08:25:52.097Z,3.24
2023-03-06T08:30:53.986Z,3.44
2023-03-06T08:35:55.376Z,2.87
2023-03-06T08:40:56.736Z,3.19
2023-03-06T08:45:58.053Z,3.33
2023-03-06T08:50:59.383Z,3.51
2023-03-06T08:56:00.722Z,3.92
2023-03-06T09:01:03.874Z,4.24
2023-03-06T09:06:05.515Z,4.52
2023-03-06T09:11:06.932Z,4.59
2023-03-06T09:16:09.184Z,4.47
2023-03-06T09:21:10.980Z,4.53
2023-03-06T09:26:12.564Z,4.78
2023-03-06T09:31:13.875Z,4.72
2023-03-06T09:36:15.588Z,5.15
2023-03-06T09:41:16.879Z,5.27
2023-03-06T09:46:18.215Z,5.16
2023-03-06T09:51:19.764Z,4.59
2023-03-06T09:56:21.118Z,4.91
2023-03-06T10:01:22.478Z,5.39
2023-03-06T10:06:23.843Z,5.10
2023-03-06T10:11:25.179Z,4.90
2023-03-06T10:16:26.489Z,4.87
2023-03-06T10:21:29.765Z,4.54
2023-03-06T10:26:34.713Z,4.57
2023-03-06T10:31:35.991Z,4.98
2023-03-06T10:36:37.353Z,4.93
2023-03-06T10:41:38.889Z,5.88
2023-03-06T10:46:41.781Z,5.92
2023-03-06T10:51:43.271Z,6.07
2023-03-06T10:56:44.649Z,5.83
2023-03-06T11:01:46.092Z,5.70
2023-03-06T11:06:47.449Z,5.34
2023-03-06T11:11:48.660Z,5.55
2023-03-06T11:16:53.183Z,6.06
2023-03-06T11:21:54.420Z,6.05
2023-03-06T11:26:55.696Z,6.78
2023-03-06T11:31:57.082Z,6.57
2023-03-06T11:36:58.327Z,6.77
2023-03-06T11:41:59.801Z,6.26
2023-03-06T11:47:01.619Z,6.04
2023-03-06T11:52:02.869Z,5.73
2023-03-06T11:57:04.164Z,6.02
2023-03-06T12:02:05.452Z,6.10
2023-03-06T12:07:07.820Z,6.26
2023-03-06T12:12:09.152Z,6.59
2023-03-06T12:17:10.396Z,7.06
2023-03-06T12:22:11.658Z,7.33
2023-03-06T12:27:13.079Z,7.55
2023-03-06T12:32:14.855Z,7.13
2023-03-06T12:37:16.330Z,7.12
2023-03-06T12:42:22.876Z,6.58
2023-03-06T12:47:25.030Z,6.42
2023-03-06T12:52:30.374Z,5.98
2023-03-06T12:57:33.910Z,5.36
2023-03-06T13:02:35.244Z,5.74
2023-03-06T13:07:36.715Z,5.55
2023-03-06T13:12:37.993Z,5.20
2023-03-06T13:57:28.115Z,3.69
2023-03-06T14:02:29.423Z,3.03
2023-03-06T14:07:30.841Z,3.17
2023-03-06T14:12:32.193Z,3.08
2023-03-06T14:17:33.567Z,3.37
2023-03-06T14:22:35.147Z,3.69
2023-03-06T14:27:36.535Z,3.88
2023-03-06T14:32:37.906Z,4.01
2023-03-06T14:37:39.356Z,4.09
2023-03-06T14:42:40.643Z,4.37
2023-03-06T14:47:41.877Z,4.37
2023-03-06T14:52:43.090Z,4.79
2023-03-06T14:57:44.556Z,5.03
2023-03-06T15:02:45.912Z,4.94
2023-03-06T15:07:47.270Z,5.15
2023-03-06T15:12:48.560Z,5.43
2023-03-06T15:17:49.825Z,5.24
2023-03-06T15:22:51.058Z,5.30
2023-03-06T15:27:52.298Z,5.31
2023-03-06T15:32:53.613Z,5.45
2023-03-06T15:37:54.942Z,5.64
2023-03-06T15:42:56.314Z,5.53
2023-03-06T15:47:58.411Z,5.39
2023-03-06T15:52:59.929Z,5.24
2023-03-06T15:58:02.146Z,4.99
2023-03-06T16:03:03.628Z,5.10
2023-03-06T16:08:05.244Z,4.93
2023-03-06T16:13:06.723Z,4.87
2023-03-06T16:18:08.097Z,5.07
2023-03-06T16:23:12.848Z,5.10
2023-03-06T16:28:17.158Z,5.27
2023-03-06T16:33:18.782Z,5.16
2023-03-06T16:38:20.138Z,5.08
2023-03-06T16:43:21.374Z,5.05
2023-03-06T16:48:22.693Z,5.01
2023-03-06T16:53:24.037Z,4.77
2023-03-06T16:58:31.257Z,4.92
2023-03-06T17:03:45.725Z,4.97
2023-03-06T17:08:47.009Z,5.21
2023-03-06T17:13:48.487Z,5.24
2023-03-06T17:18:56.804Z,5.08
2023-03-06T17:23:58.540Z,5.19
2023-03-06T17:29:00.187Z,5.09
2023-03-06T17:34:01.610Z,5.13
2023-03-06T17:39:03.216Z,5.16
2023-03-06T17:44:04.875Z,5.09
2023-03-06T17:49:07.005Z,4.83
2023-03-06T17:54:08.343Z,4.59
2023-03-06T17:59:09.865Z,4.87
2023-03-06T18:04:11.290Z,4.25
2023-03-06T18:09:12.626Z,4.08
2023-03-06T18:14:17.261Z,4.86
2023-03-06T18:19:18.968Z,5.03
2023-03-06T18:24:20.213Z,4.77
2023-03-06T18:29:21.466Z,4.72
2023-03-06T18:34:22.786Z,4.90
2023-03-06T18:39:24.038Z,4.52
2023-03-06T18:44:25.347Z,4.98
2023-03-06T18:49:26.686Z,5.23
2023-03-06T18:54:29.586Z,5.33
2023-03-06T18:59:32.745Z,5.44
2023-03-06T19:04:38.205Z,5.42
2023-03-06T19:09:40.706Z,5.51
2023-03-06T19:14:51.011Z,5.60
2023-03-06T19:19:52.369Z,5.50
2023-03-06T19:24:53.690Z,5.44
2023-03-06T19:29:55.109Z,5.48
2023-03-06T19:34:59.340Z,5.43
2023-03-06T19:40:04.848Z,5.18
2023-03-06T19:45:06.096Z,5.17
2023-03-06T19:50:07.364Z,5.12
2023-03-06T19:55:09.644Z,5.15
2023-03-06T20:00:10.888Z,5.20
2023-03-06T20:05:12.390Z,4.84
2023-03-06T20:10:13.781Z,4.76
2023-03-06T20:15:15.019Z,4.77
2023-03-06T20:20:16.275Z,4.63
2023-03-06T20:25:17.516Z,4.54
2023-03-06T20:30:20.993Z,4.51
2023-03-06T20:35:22.512Z,4.41
2023-03-06T20:40:23.908Z,4.40
2023-03-06T20:45:25.272Z,4.28
2023-03-06T20:50:26.778Z,4.28
2023-03-06T20:55:28.057Z,4.14
2023-03-06T21:00:34.221Z,4.07
2023-03-06T21:05:35.502Z,4.02
2023-03-06T21:10:36.805Z,4.09
2023-03-06T21:15:38.059Z,4.06
2023-03-06T21:20:39.412Z,4.00
2023-03-06T21:25:40.803Z,3.86
2023-03-06T21:30:42.046Z,3.76
2023-03-06T21:35:43.289Z,3.93
2023-03-06T21:40:45.383Z,3.98
2023-03-06T21:45:46.784Z,3.92
2023-03-06T21:50:48.435Z,4.10
2023-03-06T21:55:49.695Z,3.96
2023-03-06T22:00:51.004Z,4.06
2023-03-06T22:05:52.778Z,3.66
2023-03-06T22:10:53.991Z,3.63
2023-03-06T22:15:55.287Z,3.44
2023-03-06T22:20:56.497Z,3.68
2023-03-06T22:25:57.840Z,3.69
2023-03-06T22:30:59.058Z,3.82
2023-03-06T22:36:02.658Z,3.93
2023-03-06T22:41:04.045Z,3.96
2023-03-06T22:46:05.353Z,4.05
2023-03-06T22:51:06.663Z,3.99
2023-03-06T22:56:07.965Z,3.76
2023-03-06T23:01:09.800Z,3.81
2023-03-06T23:06:11.165Z,3.65
2023-03-06T23:11:12.438Z,3.77
2023-03-06T23:16:13.683Z,3.69
2023-03-06T23:21:14.988Z,3.74
2023-03-06T23:26:16.443Z,3.82
2023-03-06T23:31:17.735Z,3.85
2023-03-06T23:36:19.054Z,3.96
2023-03-06T23:41:20.346Z,4.05
2023-03-06T23:46:21.609Z,3.85
2023-03-06T23:51:22.985Z,3.76
2023-03-06T23:56:24.291Z,3.79
